sensor_id;sensor_type;location;lat;lon;timestamp;P1;durP1;ratioP1;P2;durP2;ratioP2
2406;SDS011;37709;53.480;9.688;2023-04-24T00:02:05;15.93;;;11.63;;
2406;SDS011;37709;53.480;9.688;2023-04-24T00:04:33;21.10;;;13.40;;
2406;SDS011;37709;53.480;9.688;2023-04-24T00:07:01;16.50;;;13.00;;
2406;SDS011;37709;53.480;9.688;2023-04-24T00:09:30;16.37;;;12.97;;
2406;SDS011;37709;53.480;9.688;2023-04-24T00:11:57;16.37;;;13.00;;
2406;SDS011;37709;53.480;9.688;2023-04-24T00:14:25;24.70;;;15.00;;
2406;SDS011;37709;53.480;9.688;2023-04-24T00:16:52;14.83;;;12.70;;
2406;SDS011;37709;53.480;9.688;2023-04-24T00:19:19;21.57;;;14.50;;
2406;SDS011;37709;53.480;9.688;2023-04-24T00:21:47;16.63;;;14.70;;
2406;SDS011;37709;53.480;9.688;2023-04-24T00:24:16;19.87;;;14.30;;
2406;SDS011;37709;53.480;9.688;2023-04-24T00:26:44;16.40;;;13.77;;
2406;SDS011;37709;53.480;9.688;2023-04-24T00:29:12;17.00;;;14.07;;
2406;SDS011;37709;53.480;9.688;2023-04-24T00:31:39;14.77;;;12.20;;
2406;SDS011;37709;53.480;9.688;2023-04-24T00:34:07;18.60;;;14.30;;
2406;SDS011;37709;53.480;9.688;2023-04-24T00:36:34;25.30;;;14.53;;
2406;SDS011;37709;53.480;9.688;2023-04-24T00:39:02;13.80;;;11.97;;
2406;SDS011;37709;53.480;9.688;2023-04-24T00:41:29;15.57;;;12.60;;
2406;SDS011;37709;53.480;9.688;2023-04-24T00:43:57;14.90;;;11.97;;
2406;SDS011;37709;53.480;9.688;2023-04-24T00:46:25;16.40;;;12.30;;
2406;SDS011;37709;53.480;9.688;2023-04-24T00:48:52;16.97;;;12.83;;
2406;SDS011;37709;53.480;9.688;2023-04-24T00:51:19;16.30;;;11.97;;
2406;SDS011;37709;53.480;9.688;2023-04-24T00:53:47;12.90;;;11.17;;
2406;SDS011;37709;53.480;9.688;2023-04-24T00:56:14;10.87;;;9.77;;
2406;SDS011;37709;53.480;9.688;2023-04-24T00:58:42;10.73;;;9.63;;
2406;SDS011;37709;53.480;9.688;2023-04-24T01:01:10;10.57;;;9.10;;
2406;SDS011;37709;53.480;9.688;2023-04-24T01:03:38;12.20;;;10.83;;
2406;SDS011;37709;53.480;9.688;2023-04-24T01:06:07;12.07;;;10.63;;
2406;SDS011;37709;53.480;9.688;2023-04-24T01:08:36;11.43;;;10.20;;
2406;SDS011;37709;53.480;9.688;2023-04-24T01:11:05;10.73;;;9.40;;
2406;SDS011;37709;53.480;9.688;2023-04-24T01:13:32;9.13;;;8.20;;
2406;SDS011;37709;53.480;9.688;2023-04-24T01:16:02;12.10;;;9.73;;
2406;SDS011;37709;53.480;9.688;2023-04-24T01:18:29;13.17;;;10.10;;
2406;SDS011;37709;53.480;9.688;2023-04-24T01:20:57;12.83;;;10.27;;
2406;SDS011;37709;53.480;9.688;2023-04-24T01:23:26;10.80;;;8.77;;
2406;SDS011;37709;53.480;9.688;2023-04-24T01:25:53;11.43;;;8.00;;
2406;SDS011;37709;53.480;9.688;2023-04-24T01:28:21;10.10;;;8.70;;
2406;SDS011;37709;53.480;9.688;2023-04-24T01:30:49;9.30;;;8.07;;
2406;SDS011;37709;53.480;9.688;2023-04-24T01:33:16;10.07;;;6.60;;
2406;SDS011;37709;53.480;9.688;2023-04-24T01:35:44;7.97;;;7.17;;
2406;SDS011;37709;53.480;9.688;2023-04-24T01:38:12;7.87;;;7.03;;
2406;SDS011;37709;53.480;9.688;2023-04-24T01:40:40;8.30;;;7.50;;
2406;SDS011;37709;53.480;9.688;2023-04-24T01:43:07;6.03;;;5.43;;
2406;SDS011;37709;53.480;9.688;2023-04-24T01:45:34;8.27;;;7.20;;
2406;SDS011;37709;53.480;9.688;2023-04-24T01:48:04;5.57;;;5.03;;
2406;SDS011;37709;53.480;9.688;2023-04-24T01:50:31;6.70;;;6.10;;
2406;SDS011;37709;53.480;9.688;2023-04-24T01:52:59;4.90;;;4.50;;
2406;SDS011;37709;53.480;9.688;2023-04-24T01:55:26;5.10;;;4.60;;
2406;SDS011;37709;53.480;9.688;2023-04-24T01:57:54;6.10;;;5.00;;
2406;SDS011;37709;53.480;9.688;2023-04-24T02:00:22;5.13;;;4.60;;
2406;SDS011;37709;53.480;9.688;2023-04-24T02:02:52;4.80;;;4.40;;
2406;SDS011;37709;53.480;9.688;2023-04-24T02:05:20;4.63;;;4.20;;
2406;SDS011;37709;53.480;9.688;2023-04-24T02:07:48;4.40;;;4.00;;
2406;SDS011;37709;53.480;9.688;2023-04-24T02:10:15;5.20;;;4.70;;
2406;SDS011;37709;53.480;9.688;2023-04-24T02:12:42;5.30;;;4.80;;
2406;SDS011;37709;53.480;9.688;2023-04-24T02:15:10;4.47;;;4.07;;
2406;SDS011;37709;53.480;9.688;2023-04-24T02:17:38;4.00;;;3.60;;
2406;SDS011;37709;53.480;9.688;2023-04-24T02:20:06;5.00;;;4.00;;
2406;SDS011;37709;53.480;9.688;2023-04-24T02:22:33;3.90;;;3.60;;
2406;SDS011;37709;53.480;9.688;2023-04-24T02:25:02;4.70;;;4.30;;
2406;SDS011;37709;53.480;9.688;2023-04-24T02:27:31;3.97;;;3.67;;
2406;SDS011;37709;53.480;9.688;2023-04-24T02:29:58;4.73;;;4.27;;
2406;SDS011;37709;53.480;9.688;2023-04-24T02:32:26;4.60;;;3.70;;
2406;SDS011;37709;53.480;9.688;2023-04-24T02:34:54;4.37;;;3.97;;
2406;SDS011;37709;53.480;9.688;2023-04-24T02:37:21;3.90;;;3.60;;
2406;SDS011;37709;53.480;9.688;2023-04-24T02:39:48;4.23;;;3.83;;
2406;SDS011;37709;53.480;9.688;2023-04-24T02:42:15;4.43;;;3.73;;
2406;SDS011;37709;53.480;9.688;2023-04-24T02:44:42;4.20;;;3.70;;
2406;SDS011;37709;53.480;9.688;2023-04-24T02:47:10;4.17;;;3.60;;
2406;SDS011;37709;53.480;9.688;2023-04-24T02:49:37;4.40;;;4.00;;
2406;SDS011;37709;53.480;9.688;2023-04-24T02:52:04;5.73;;;4.00;;
2406;SDS011;37709;53.480;9.688;2023-04-24T02:54:31;4.57;;;4.17;;
2406;SDS011;37709;53.480;9.688;2023-04-24T02:56:59;3.70;;;3.40;;
2406;SDS011;37709;53.480;9.688;2023-04-24T02:59:27;4.63;;;3.57;;
2406;SDS011;37709;53.480;9.688;2023-04-24T03:01:55;4.20;;;3.80;;
2406;SDS011;37709;53.480;9.688;2023-04-24T03:04:23;3.70;;;3.40;;
2406;SDS011;37709;53.480;9.688;2023-04-24T03:06:50;4.03;;;3.63;;
2406;SDS011;37709;53.480;9.688;2023-04-24T03:09:20;4.30;;;3.10;;
2406;SDS011;37709;53.480;9.688;2023-04-24T03:11:47;3.73;;;3.40;;
2406;SDS011;37709;53.480;9.688;2023-04-24T03:14:16;4.43;;;4.03;;
2406;SDS011;37709;53.480;9.688;2023-04-24T03:16:43;4.50;;;4.10;;
2406;SDS011;37709;53.480;9.688;2023-04-24T03:19:11;6.37;;;4.10;;
2406;SDS011;37709;53.480;9.688;2023-04-24T03:21:51;3.30;;;3.00;;
2406;SDS011;37709;53.480;9.688;2023-04-24T03:24:18;3.70;;;3.40;;
2406;SDS011;37709;53.480;9.688;2023-04-24T03:26:47;4.63;;;3.97;;
2406;SDS011;37709;53.480;9.688;2023-04-24T03:29:33;3.97;;;3.67;;
2406;SDS011;37709;53.480;9.688;2023-04-24T03:32:01;3.33;;;3.03;;
2406;SDS011;37709;53.480;9.688;2023-04-24T03:34:28;3.40;;;3.00;;
2406;SDS011;37709;53.480;9.688;2023-04-24T03:36:57;3.27;;;3.00;;
2406;SDS011;37709;53.480;9.688;2023-04-24T03:39:25;3.10;;;2.90;;
2406;SDS011;37709;53.480;9.688;2023-04-24T03:41:55;3.50;;;3.13;;
2406;SDS011;37709;53.480;9.688;2023-04-24T03:44:29;2.60;;;2.40;;
2406;SDS011;37709;53.480;9.688;2023-04-24T03:46:57;3.20;;;2.90;;
2406;SDS011;37709;53.480;9.688;2023-04-24T03:49:25;2.90;;;2.70;;
2406;SDS011;37709;53.480;9.688;2023-04-24T03:51:52;3.20;;;2.63;;
2406;SDS011;37709;53.480;9.688;2023-04-24T03:54:22;3.43;;;3.13;;
2406;SDS011;37709;53.480;9.688;2023-04-24T03:56:51;3.70;;;3.30;;
2406;SDS011;37709;53.480;9.688;2023-04-24T03:59:19;3.57;;;3.27;;
2406;SDS011;37709;53.480;9.688;2023-04-24T04:01:57;3.00;;;2.80;;
2406;SDS011;37709;53.480;9.688;2023-04-24T04:04:26;4.57;;;2.57;;
2406;SDS011;37709;53.480;9.688;2023-04-24T04:06:53;2.57;;;2.37;;
2406;SDS011;37709;53.480;9.688;2023-04-24T04:09:22;3.07;;;2.87;;
2406;SDS011;37709;53.480;9.688;2023-04-24T04:11:49;3.37;;;2.60;;
2406;SDS011;37709;53.480;9.688;2023-04-24T04:14:17;3.50;;;2.60;;
2406;SDS011;37709;53.480;9.688;2023-04-24T04:16:47;2.50;;;2.30;;
2406;SDS011;37709;53.480;9.688;2023-04-24T04:19:15;2.73;;;2.53;;
2406;SDS011;37709;53.480;9.688;2023-04-24T04:21:42;4.37;;;2.90;;
2406;SDS011;37709;53.480;9.688;2023-04-24T04:24:45;2.30;;;2.10;;
2406;SDS011;37709;53.480;9.688;2023-04-24T04:27:13;2.77;;;2.57;;
2406;SDS011;37709;53.480;9.688;2023-04-24T04:29:50;2.33;;;2.23;;
2406;SDS011;37709;53.480;9.688;2023-04-24T04:32:17;2.43;;;2.23;;
2406;SDS011;37709;53.480;9.688;2023-04-24T04:34:45;2.30;;;2.10;;
2406;SDS011;37709;53.480;9.688;2023-04-24T04:37:12;2.47;;;2.27;;
2406;SDS011;37709;53.480;9.688;2023-04-24T04:39:52;1.80;;;1.70;;
2406;SDS011;37709;53.480;9.688;2023-04-24T04:42:24;2.30;;;2.13;;
2406;SDS011;37709;53.480;9.688;2023-04-24T04:44:51;2.03;;;1.93;;
2406;SDS011;37709;53.480;9.688;2023-04-24T04:47:25;2.20;;;2.10;;
2406;SDS011;37709;53.480;9.688;2023-04-24T04:49:56;2.90;;;2.00;;
2406;SDS011;37709;53.480;9.688;2023-04-24T04:52:27;2.03;;;1.83;;
2406;SDS011;37709;53.480;9.688;2023-04-24T04:55:02;2.17;;;2.00;;
2406;SDS011;37709;53.480;9.688;2023-04-24T04:57:50;2.60;;;2.17;;
2406;SDS011;37709;53.480;9.688;2023-04-24T05:00:18;2.13;;;1.83;;
2406;SDS011;37709;53.480;9.688;2023-04-24T05:02:51;2.10;;;2.00;;
2406;SDS011;37709;53.480;9.688;2023-04-24T05:05:18;2.40;;;2.20;;
2406;SDS011;37709;53.480;9.688;2023-04-24T05:07:46;2.17;;;1.93;;
2406;SDS011;37709;53.480;9.688;2023-04-24T05:10:14;2.33;;;2.00;;
2406;SDS011;37709;53.480;9.688;2023-04-24T05:12:41;1.83;;;1.70;;
2406;SDS011;37709;53.480;9.688;2023-04-24T05:15:12;2.10;;;1.70;;
2406;SDS011;37709;53.480;9.688;2023-04-24T05:17:39;3.33;;;2.07;;
2406;SDS011;37709;53.480;9.688;2023-04-24T05:20:08;4.47;;;2.70;;
2406;SDS011;37709;53.480;9.688;2023-04-24T05:22:36;1.80;;;1.60;;
2406;SDS011;37709;53.480;9.688;2023-04-24T05:25:03;3.50;;;2.10;;
2406;SDS011;37709;53.480;9.688;2023-04-24T05:27:46;2.00;;;1.80;;
2406;SDS011;37709;53.480;9.688;2023-04-24T05:30:15;2.33;;;1.70;;
2406;SDS011;37709;53.480;9.688;2023-04-24T05:32:43;1.70;;;1.60;;
2406;SDS011;37709;53.480;9.688;2023-04-24T05:35:12;2.90;;;1.90;;
2406;SDS011;37709;53.480;9.688;2023-04-24T05:37:40;1.87;;;1.57;;
2406;SDS011;37709;53.480;9.688;2023-04-24T05:40:09;3.20;;;2.10;;
2406;SDS011;37709;53.480;9.688;2023-04-24T05:42:37;3.40;;;1.90;;
2406;SDS011;37709;53.480;9.688;2023-04-24T05:45:05;3.07;;;2.33;;
2406;SDS011;37709;53.480;9.688;2023-04-24T05:47:32;1.93;;;1.80;;
2406;SDS011;37709;53.480;9.688;2023-04-24T05:50:00;2.00;;;1.80;;
2406;SDS011;37709;53.480;9.688;2023-04-24T05:52:28;2.30;;;2.00;;
2406;SDS011;37709;53.480;9.688;2023-04-24T05:54:55;1.87;;;1.60;;
2406;SDS011;37709;53.480;9.688;2023-04-24T05:57:26;1.53;;;1.43;;
2406;SDS011;37709;53.480;9.688;2023-04-24T05:59:59;2.07;;;1.87;;
2406;SDS011;37709;53.480;9.688;2023-04-24T06:02:26;3.53;;;1.60;;
2406;SDS011;37709;53.480;9.688;2023-04-24T06:04:54;1.87;;;1.70;;
2406;SDS011;37709;53.480;9.688;2023-04-24T06:07:23;1.90;;;1.80;;
2406;SDS011;37709;53.480;9.688;2023-04-24T06:09:50;1.83;;;1.37;;
2406;SDS011;37709;53.480;9.688;2023-04-24T06:12:18;1.70;;;1.60;;
2406;SDS011;37709;53.480;9.688;2023-04-24T06:15:00;1.67;;;1.50;;
2406;SDS011;37709;53.480;9.688;2023-04-24T06:18:06;2.60;;;1.73;;
2406;SDS011;37709;53.480;9.688;2023-04-24T06:20:35;3.47;;;2.17;;
2406;SDS011;37709;53.480;9.688;2023-04-24T06:23:03;1.97;;;1.67;;
2406;SDS011;37709;53.480;9.688;2023-04-24T06:25:33;1.60;;;1.50;;
2406;SDS011;37709;53.480;9.688;2023-04-24T06:28:01;2.53;;;2.10;;
2406;SDS011;37709;53.480;9.688;2023-04-24T06:30:30;3.80;;;2.20;;
2406;SDS011;37709;53.480;9.688;2023-04-24T06:32:58;1.97;;;1.87;;
2406;SDS011;37709;53.480;9.688;2023-04-24T06:35:44;1.97;;;1.80;;
2406;SDS011;37709;53.480;9.688;2023-04-24T06:38:12;1.97;;;1.80;;
2406;SDS011;37709;53.480;9.688;2023-04-24T06:40:40;2.23;;;2.03;;
2406;SDS011;37709;53.480;9.688;2023-04-24T06:43:07;2.73;;;2.53;;
2406;SDS011;37709;53.480;9.688;2023-04-24T06:45:34;2.60;;;2.40;;
2406;SDS011;37709;53.480;9.688;2023-04-24T06:48:02;3.00;;;2.13;;
2406;SDS011;37709;53.480;9.688;2023-04-24T06:50:29;2.77;;;2.57;;
2406;SDS011;37709;53.480;9.688;2023-04-24T06:52:57;2.67;;;2.47;;
2406;SDS011;37709;53.480;9.688;2023-04-24T06:55:25;2.90;;;2.60;;
2406;SDS011;37709;53.480;9.688;2023-04-24T06:57:53;3.53;;;2.67;;
2406;SDS011;37709;53.480;9.688;2023-04-24T07:00:20;3.93;;;2.60;;
2406;SDS011;37709;53.480;9.688;2023-04-24T07:02:48;2.53;;;2.30;;
2406;SDS011;37709;53.480;9.688;2023-04-24T07:05:15;3.03;;;2.83;;
2406;SDS011;37709;53.480;9.688;2023-04-24T07:07:47;4.17;;;3.00;;
2406;SDS011;37709;53.480;9.688;2023-04-24T07:10:15;3.53;;;3.23;;
2406;SDS011;37709;53.480;9.688;2023-04-24T07:12:42;3.63;;;3.33;;
2406;SDS011;37709;53.480;9.688;2023-04-24T07:15:10;3.23;;;3.03;;
2406;SDS011;37709;53.480;9.688;2023-04-24T07:17:38;3.30;;;3.10;;
2406;SDS011;37709;53.480;9.688;2023-04-24T07:20:05;3.63;;;3.33;;
2406;SDS011;37709;53.480;9.688;2023-04-24T07:22:37;4.07;;;3.77;;
2406;SDS011;37709;53.480;9.688;2023-04-24T07:25:05;4.00;;;3.70;;
2406;SDS011;37709;53.480;9.688;2023-04-24T07:27:33;4.67;;;3.57;;
2406;SDS011;37709;53.480;9.688;2023-04-24T07:30:00;3.77;;;3.47;;
2406;SDS011;37709;53.480;9.688;2023-04-24T07:32:29;3.77;;;3.47;;
2406;SDS011;37709;53.480;9.688;2023-04-24T07:34:56;4.10;;;3.80;;
2406;SDS011;37709;53.480;9.688;2023-04-24T07:37:23;4.00;;;3.70;;
2406;SDS011;37709;53.480;9.688;2023-04-24T07:39:51;4.40;;;4.00;;
2406;SDS011;37709;53.480;9.688;2023-04-24T07:42:18;4.07;;;3.77;;
2406;SDS011;37709;53.480;9.688;2023-04-24T07:44:46;4.30;;;3.90;;
2406;SDS011;37709;53.480;9.688;2023-04-24T07:47:14;4.30;;;4.00;;
2406;SDS011;37709;53.480;9.688;2023-04-24T07:49:43;4.33;;;4.03;;
2406;SDS011;37709;53.480;9.688;2023-04-24T07:52:12;4.53;;;4.13;;
2406;SDS011;37709;53.480;9.688;2023-04-24T07:54:40;4.00;;;3.70;;
2406;SDS011;37709;53.480;9.688;2023-04-24T07:57:08;4.00;;;3.70;;
2406;SDS011;37709;53.480;9.688;2023-04-24T07:59:35;3.93;;;3.63;;
2406;SDS011;37709;53.480;9.688;2023-04-24T08:02:03;3.63;;;3.37;;
2406;SDS011;37709;53.480;9.688;2023-04-24T08:04:30;3.17;;;2.97;;
2406;SDS011;37709;53.480;9.688;2023-04-24T08:06:57;2.77;;;2.57;;
2406;SDS011;37709;53.480;9.688;2023-04-24T08:09:25;3.90;;;3.60;;
2406;SDS011;37709;53.480;9.688;2023-04-24T08:11:53;2.47;;;2.27;;
2406;SDS011;37709;53.480;9.688;2023-04-24T08:14:24;3.77;;;2.90;;
2406;SDS011;37709;53.480;9.688;2023-04-24T08:16:53;3.73;;;3.40;;
2406;SDS011;37709;53.480;9.688;2023-04-24T08:19:22;4.63;;;4.23;;
2406;SDS011;37709;53.480;9.688;2023-04-24T08:21:49;4.77;;;4.47;;
2406;SDS011;37709;53.480;9.688;2023-04-24T08:24:16;5.23;;;4.83;;
2406;SDS011;37709;53.480;9.688;2023-04-24T08:26:43;5.23;;;4.83;;
2406;SDS011;37709;53.480;9.688;2023-04-24T08:29:11;6.13;;;5.53;;
2406;SDS011;37709;53.480;9.688;2023-04-24T08:31:38;6.20;;;5.70;;
2406;SDS011;37709;53.480;9.688;2023-04-24T08:34:05;6.83;;;5.40;;
2406;SDS011;37709;53.480;9.688;2023-04-24T08:36:32;6.30;;;5.70;;
2406;SDS011;37709;53.480;9.688;2023-04-24T08:39:13;6.37;;;5.87;;
2406;SDS011;37709;53.480;9.688;2023-04-24T08:41:41;5.70;;;5.30;;
2406;SDS011;37709;53.480;9.688;2023-04-24T08:44:13;7.07;;;6.20;;
2406;SDS011;37709;53.480;9.688;2023-04-24T08:46:42;6.30;;;5.70;;
2406;SDS011;37709;53.480;9.688;2023-04-24T08:49:13;6.17;;;5.67;;
2406;SDS011;37709;53.480;9.688;2023-04-24T08:51:43;5.87;;;5.30;;
2406;SDS011;37709;53.480;9.688;2023-04-24T08:54:12;6.60;;;6.10;;
2406;SDS011;37709;53.480;9.688;2023-04-24T08:56:40;6.97;;;6.30;;
2406;SDS011;37709;53.480;9.688;2023-04-24T08:59:11;6.00;;;5.50;;
2406;SDS011;37709;53.480;9.688;2023-04-24T09:01:39;5.50;;;5.10;;
2406;SDS011;37709;53.480;9.688;2023-04-24T09:04:08;6.03;;;5.53;;
2406;SDS011;37709;53.480;9.688;2023-04-24T09:06:38;6.80;;;5.50;;
2406;SDS011;37709;53.480;9.688;2023-04-24T09:09:05;5.87;;;5.30;;
2406;SDS011;37709;53.480;9.688;2023-04-24T09:11:33;4.97;;;4.57;;
2406;SDS011;37709;53.480;9.688;2023-04-24T09:14:01;6.47;;;5.97;;
2406;SDS011;37709;53.480;9.688;2023-04-24T09:16:31;7.53;;;5.77;;
2406;SDS011;37709;53.480;9.688;2023-04-24T09:19:02;6.93;;;6.33;;
2406;SDS011;37709;53.480;9.688;2023-04-24T09:21:33;6.07;;;5.47;;
2406;SDS011;37709;53.480;9.688;2023-04-24T09:24:02;5.33;;;4.93;;
2406;SDS011;37709;53.480;9.688;2023-04-24T09:26:32;6.33;;;5.83;;
2406;SDS011;37709;53.480;9.688;2023-04-24T09:29:01;7.27;;;6.67;;
2406;SDS011;37709;53.480;9.688;2023-04-24T09:31:30;7.63;;;7.00;;
2406;SDS011;37709;53.480;9.688;2023-04-24T09:33:59;6.70;;;6.20;;
2406;SDS011;37709;53.480;9.688;2023-04-24T09:36:38;7.37;;;6.67;;
2406;SDS011;37709;53.480;9.688;2023-04-24T09:39:08;6.17;;;5.57;;
2406;SDS011;37709;53.480;9.688;2023-04-24T09:41:47;7.10;;;6.40;;
2406;SDS011;37709;53.480;9.688;2023-04-24T09:44:16;6.63;;;6.03;;
2406;SDS011;37709;53.480;9.688;2023-04-24T09:46:46;7.47;;;6.77;;
2406;SDS011;37709;53.480;9.688;2023-04-24T09:49:21;8.43;;;6.63;;
2406;SDS011;37709;53.480;9.688;2023-04-24T09:51:51;8.60;;;7.80;;
2406;SDS011;37709;53.480;9.688;2023-04-24T09:54:20;7.40;;;6.70;;
2406;SDS011;37709;53.480;9.688;2023-04-24T09:56:49;8.47;;;7.77;;
2406;SDS011;37709;53.480;9.688;2023-04-24T09:59:18;8.33;;;7.40;;
2406;SDS011;37709;53.480;9.688;2023-04-24T10:01:46;6.67;;;6.07;;
2406;SDS011;37709;53.480;9.688;2023-04-24T10:04:16;8.60;;;7.43;;
2406;SDS011;37709;53.480;9.688;2023-04-24T10:06:54;9.67;;;8.67;;
2406;SDS011;37709;53.480;9.688;2023-04-24T10:09:26;8.70;;;7.90;;
2406;SDS011;37709;53.480;9.688;2023-04-24T10:11:54;10.87;;;9.90;;
2406;SDS011;37709;53.480;9.688;2023-04-24T10:14:25;9.13;;;8.33;;
2406;SDS011;37709;53.480;9.688;2023-04-24T10:16:53;9.57;;;8.67;;
2406;SDS011;37709;53.480;9.688;2023-04-24T10:19:22;9.50;;;8.60;;
2406;SDS011;37709;53.480;9.688;2023-04-24T10:21:52;8.87;;;8.10;;
2406;SDS011;37709;53.480;9.688;2023-04-24T10:24:20;9.27;;;8.40;;
2406;SDS011;37709;53.480;9.688;2023-04-24T10:26:47;9.40;;;8.70;;
2406;SDS011;37709;53.480;9.688;2023-04-24T10:29:16;9.40;;;8.60;;
2406;SDS011;37709;53.480;9.688;2023-04-24T10:31:44;9.73;;;8.37;;
2406;SDS011;37709;53.480;9.688;2023-04-24T10:34:14;10.00;;;9.10;;
2406;SDS011;37709;53.480;9.688;2023-04-24T10:36:53;9.57;;;8.77;;
2406;SDS011;37709;53.480;9.688;2023-04-24T10:39:24;8.60;;;7.80;;
2406;SDS011;37709;53.480;9.688;2023-04-24T10:41:54;10.23;;;9.33;;
2406;SDS011;37709;53.480;9.688;2023-04-24T10:44:24;9.27;;;8.47;;
2406;SDS011;37709;53.480;9.688;2023-04-24T10:46:54;9.10;;;8.40;;
2406;SDS011;37709;53.480;9.688;2023-04-24T10:49:30;7.90;;;7.20;;
2406;SDS011;37709;53.480;9.688;2023-04-24T10:52:00;9.23;;;8.33;;
2406;SDS011;37709;53.480;9.688;2023-04-24T10:54:34;9.73;;;8.73;;
2406;SDS011;37709;53.480;9.688;2023-04-24T10:59:49;9.90;;;9.10;;
2406;SDS011;37709;53.480;9.688;2023-04-24T11:02:37;8.40;;;7.70;;
2406;SDS011;37709;53.480;9.688;2023-04-24T11:05:06;9.33;;;8.50;;
2406;SDS011;37709;53.480;9.688;2023-04-24T11:10:46;9.00;;;8.20;;
2406;SDS011;37709;53.480;9.688;2023-04-24T11:13:21;9.33;;;8.53;;
2406;SDS011;37709;53.480;9.688;2023-04-24T11:18:41;9.97;;;8.90;;
2406;SDS011;37709;53.480;9.688;2023-04-24T11:21:12;9.57;;;8.70;;
2406;SDS011;37709;53.480;9.688;2023-04-24T11:23:40;10.77;;;9.80;;
2406;SDS011;37709;53.480;9.688;2023-04-24T11:26:11;8.97;;;8.07;;
2406;SDS011;37709;53.480;9.688;2023-04-24T11:28:47;8.83;;;8.13;;
2406;SDS011;37709;53.480;9.688;2023-04-24T11:31:34;7.57;;;6.87;;
2406;SDS011;37709;53.480;9.688;2023-04-24T11:34:06;8.23;;;7.53;;
2406;SDS011;37709;53.480;9.688;2023-04-24T11:36:35;6.63;;;5.87;;
2406;SDS011;37709;53.480;9.688;2023-04-24T11:42:01;7.30;;;6.50;;
2406;SDS011;37709;53.480;9.688;2023-04-24T11:44:34;7.70;;;6.87;;
2406;SDS011;37709;53.480;9.688;2023-04-24T11:47:04;6.80;;;6.20;;
2406;SDS011;37709;53.480;9.688;2023-04-24T11:49:32;6.87;;;6.20;;
2406;SDS011;37709;53.480;9.688;2023-04-24T11:52:00;7.13;;;6.53;;
2406;SDS011;37709;53.480;9.688;2023-04-24T11:54:29;6.23;;;5.63;;
2406;SDS011;37709;53.480;9.688;2023-04-24T11:56:56;7.43;;;6.73;;
2406;SDS011;37709;53.480;9.688;2023-04-24T11:59:24;7.00;;;6.50;;
2406;SDS011;37709;53.480;9.688;2023-04-24T12:01:53;6.57;;;6.07;;
2406;SDS011;37709;53.480;9.688;2023-04-24T12:04:21;7.30;;;6.70;;
2406;SDS011;37709;53.480;9.688;2023-04-24T12:07:04;6.93;;;6.40;;
2406;SDS011;37709;53.480;9.688;2023-04-24T12:09:44;7.07;;;6.40;;
2406;SDS011;37709;53.480;9.688;2023-04-24T12:12:14;7.30;;;6.70;;
2406;SDS011;37709;53.480;9.688;2023-04-24T12:14:44;8.30;;;7.60;;
2406;SDS011;37709;53.480;9.688;2023-04-24T12:17:16;7.30;;;6.70;;
2406;SDS011;37709;53.480;9.688;2023-04-24T12:19:47;7.90;;;7.10;;
2406;SDS011;37709;53.480;9.688;2023-04-24T12:22:15;7.40;;;6.80;;
2406;SDS011;37709;53.480;9.688;2023-04-24T12:27:33;7.70;;;7.10;;
2406;SDS011;37709;53.480;9.688;2023-04-24T12:30:09;6.63;;;5.90;;
2406;SDS011;37709;53.480;9.688;2023-04-24T12:32:45;6.83;;;6.23;;
2406;SDS011;37709;53.480;9.688;2023-04-24T12:35:18;5.67;;;5.27;;
2406;SDS011;37709;53.480;9.688;2023-04-24T12:37:47;6.47;;;5.73;;
2406;SDS011;37709;53.480;9.688;2023-04-24T12:40:15;5.20;;;4.80;;
2406;SDS011;37709;53.480;9.688;2023-04-24T12:42:44;5.53;;;5.03;;
2406;SDS011;37709;53.480;9.688;2023-04-24T12:45:16;5.30;;;4.90;;
2406;SDS011;37709;53.480;9.688;2023-04-24T12:47:45;5.80;;;5.30;;
2406;SDS011;37709;53.480;9.688;2023-04-24T12:50:13;5.30;;;4.80;;
2406;SDS011;37709;53.480;9.688;2023-04-24T12:52:41;5.00;;;4.53;;
2406;SDS011;37709;53.480;9.688;2023-04-24T12:55:10;5.90;;;5.40;;
2406;SDS011;37709;53.480;9.688;2023-04-24T12:57:39;5.27;;;4.87;;
2406;SDS011;37709;53.480;9.688;2023-04-24T13:00:07;6.60;;;6.00;;
2406;SDS011;37709;53.480;9.688;2023-04-24T13:02:36;7.17;;;6.57;;
2406;SDS011;37709;53.480;9.688;2023-04-24T13:05:04;7.43;;;6.93;;
2406;SDS011;37709;53.480;9.688;2023-04-24T13:07:31;7.23;;;6.50;;
2406;SDS011;37709;53.480;9.688;2023-04-24T13:09:59;6.53;;;6.03;;
2406;SDS011;37709;53.480;9.688;2023-04-24T13:12:26;6.50;;;5.90;;
2406;SDS011;37709;53.480;9.688;2023-04-24T13:14:54;6.27;;;5.77;;
2406;SDS011;37709;53.480;9.688;2023-04-24T13:17:22;6.10;;;5.60;;
2406;SDS011;37709;53.480;9.688;2023-04-24T13:19:50;6.50;;;6.00;;
2406;SDS011;37709;53.480;9.688;2023-04-24T13:22:18;6.40;;;5.90;;
2406;SDS011;37709;53.480;9.688;2023-04-24T13:24:45;6.30;;;5.80;;
2406;SDS011;37709;53.480;9.688;2023-04-24T13:27:15;7.23;;;6.70;;
2406;SDS011;37709;53.480;9.688;2023-04-24T13:29:43;6.43;;;5.93;;
2406;SDS011;37709;53.480;9.688;2023-04-24T13:32:10;6.57;;;6.07;;
2406;SDS011;37709;53.480;9.688;2023-04-24T13:34:38;5.40;;;4.90;;
2406;SDS011;37709;53.480;9.688;2023-04-24T13:37:05;5.90;;;5.40;;
2406;SDS011;37709;53.480;9.688;2023-04-24T13:39:33;6.10;;;5.60;;
2406;SDS011;37709;53.480;9.688;2023-04-24T13:42:00;6.30;;;5.87;;
2406;SDS011;37709;53.480;9.688;2023-04-24T13:44:31;5.73;;;5.27;;
2406;SDS011;37709;53.480;9.688;2023-04-24T13:46:59;5.70;;;4.83;;
2406;SDS011;37709;53.480;9.688;2023-04-24T13:49:27;5.80;;;5.33;;
2406;SDS011;37709;53.480;9.688;2023-04-24T13:51:55;5.23;;;4.37;;
2406;SDS011;37709;53.480;9.688;2023-04-24T13:54:23;4.80;;;4.40;;
2406;SDS011;37709;53.480;9.688;2023-04-24T13:56:53;6.10;;;5.70;;
2406;SDS011;37709;53.480;9.688;2023-04-24T13:59:20;5.87;;;5.37;;
2406;SDS011;37709;53.480;9.688;2023-04-24T14:01:50;5.90;;;5.50;;
2406;SDS011;37709;53.480;9.688;2023-04-24T14:04:17;5.23;;;4.83;;
2406;SDS011;37709;53.480;9.688;2023-04-24T14:06:45;7.17;;;6.60;;
2406;SDS011;37709;53.480;9.688;2023-04-24T14:09:12;7.03;;;6.53;;
2406;SDS011;37709;53.480;9.688;2023-04-24T14:11:40;9.40;;;8.03;;
2406;SDS011;37709;53.480;9.688;2023-04-24T14:14:07;8.23;;;7.40;;
2406;SDS011;37709;53.480;9.688;2023-04-24T14:16:35;8.03;;;7.40;;
2406;SDS011;37709;53.480;9.688;2023-04-24T14:19:02;9.67;;;8.87;;
2406;SDS011;37709;53.480;9.688;2023-04-24T14:21:33;11.57;;;9.70;;
2406;SDS011;37709;53.480;9.688;2023-04-24T14:24:00;11.47;;;10.37;;
2406;SDS011;37709;53.480;9.688;2023-04-24T14:26:27;11.00;;;10.00;;
2406;SDS011;37709;53.480;9.688;2023-04-24T14:28:55;11.57;;;10.37;;
2406;SDS011;37709;53.480;9.688;2023-04-24T14:31:39;11.33;;;10.20;;
2406;SDS011;37709;53.480;9.688;2023-04-24T14:34:07;13.93;;;10.90;;
2406;SDS011;37709;53.480;9.688;2023-04-24T14:36:35;11.87;;;10.40;;
2406;SDS011;37709;53.480;9.688;2023-04-24T14:39:03;13.07;;;10.83;;
2406;SDS011;37709;53.480;9.688;2023-04-24T14:41:33;10.53;;;8.60;;
2406;SDS011;37709;53.480;9.688;2023-04-24T14:44:02;8.57;;;7.77;;
2406;SDS011;37709;53.480;9.688;2023-04-24T14:46:30;10.07;;;9.03;;
2406;SDS011;37709;53.480;9.688;2023-04-24T14:48:59;8.23;;;7.40;;
2406;SDS011;37709;53.480;9.688;2023-04-24T14:51:26;7.73;;;6.07;;
2406;SDS011;37709;53.480;9.688;2023-04-24T14:53:54;6.97;;;6.27;;
2406;SDS011;37709;53.480;9.688;2023-04-24T14:56:23;6.10;;;5.50;;
2406;SDS011;37709;53.480;9.688;2023-04-24T14:58:51;5.30;;;4.50;;
2406;SDS011;37709;53.480;9.688;2023-04-24T15:01:18;5.00;;;4.37;;
2406;SDS011;37709;53.480;9.688;2023-04-24T15:03:45;4.80;;;3.00;;
2406;SDS011;37709;53.480;9.688;2023-04-24T15:06:13;5.60;;;3.80;;
2406;SDS011;37709;53.480;9.688;2023-04-24T15:08:41;3.50;;;3.20;;
2406;SDS011;37709;53.480;9.688;2023-04-24T15:11:09;3.50;;;3.20;;
2406;SDS011;37709;53.480;9.688;2023-04-24T15:13:37;4.30;;;3.90;;
2406;SDS011;37709;53.480;9.688;2023-04-24T15:16:04;6.40;;;4.53;;
2406;SDS011;37709;53.480;9.688;2023-04-24T15:18:32;5.87;;;5.20;;
2406;SDS011;37709;53.480;9.688;2023-04-24T15:20:59;8.27;;;6.23;;
2406;SDS011;37709;53.480;9.688;2023-04-24T15:23:26;7.40;;;6.43;;
2406;SDS011;37709;53.480;9.688;2023-04-24T15:25:54;12.17;;;7.57;;